Time;durP1;ratioP1;P1;durP2;ratioP2;P2;SDS_P1;SDS_P2;PMS_P1;PMS_P2;Temp;Humidity;BMP_temperature;BMP_pressure;BME280_temperature;BME280_humidity;BME280_pressure;Samples;Min_cycle;Max_cycle;Signal;HPM_P1;HPM_P2
2023/07/07 00:01:50;;;;;;;3.70;2.00;;;14.70;99.90;;;;;;4946972;28;20118;-71
2023/07/07 00:04:17;;;;;;;3.53;2.25;;;14.70;99.90;;;;;;4946985;29;20041;-70
2023/07/07 00:06:43;;;;;;;2.80;1.85;;;14.70;99.90;;;;;;4947268;28;20055;-71
2023/07/07 00:09:09;;;;;;;4.45;2.72;;;14.70;99.90;;;;;;4944830;29;20043;-71
2023/07/07 00:11:35;;;;;;;4.90;2.70;;;14.60;99.90;;;;;;4947332;28;20086;-71
2023/07/07 00:14:01;;;;;;;6.13;2.33;;;14.60;99.90;;;;;;4946741;28;20138;-71
2023/07/07 00:16:27;;;;;;;4.10;2.17;;;14.60;99.90;;;;;;4946977;28;20533;-70
2023/07/07 00:18:58;;;;;;;3.45;2.40;;;14.60;99.90;;;;;;4930157;29;20410;-71
2023/07/07 00:21:25;;;;;;;4.68;1.63;;;14.50;99.90;;;;;;4946675;28;20043;-71
2023/07/07 00:23:57;;;;;;;5.45;2.70;;;14.50;99.90;;;;;;4945149;29;20167;-71
2023/07/07 00:26:24;;;;;;;;;;;14.50;99.90;;;;;;4947419;28;20039;-71
2023/07/07 00:28:50;;;;;;;3.42;2.10;;;14.50;99.90;;;;;;4946734;28;20026;-70
2023/07/07 00:31:18;;;;;;;2.70;1.88;;;14.40;99.90;;;;;;4946450;28;20082;-71
2023/07/07 00:33:43;;;;;;;4.82;1.83;;;14.50;99.90;;;;;;4946810;28;20102;-71
2023/07/07 00:36:09;;;;;;;2.97;1.90;;;14.40;99.90;;;;;;4945379;29;20438;-71
2023/07/07 00:38:35;;;;;;;4.18;2.50;;;14.40;99.90;;;;;;4945703;29;20451;-71
2023/07/07 00:41:03;;;;;;;5.63;2.00;;;14.40;99.90;;;;;;4946382;29;20039;-71
2023/07/07 00:43:29;;;;;;;6.45;2.30;;;14.30;99.90;;;;;;4946994;28;20043;-71
2023/07/07 00:45:56;;;;;;;5.90;2.33;;;14.30;99.90;;;;;;4946746;28;20048;-71
2023/07/07 00:48:35;;;;;;;2.42;1.63;;;14.30;99.90;;;;;;4946089;28;20110;-70
2023/07/07 00:51:09;;;;;;;7.10;2.33;;;14.30;99.90;;;;;;4946475;28;20121;-71
2023/07/07 00:53:36;;;;;;;3.83;1.77;;;14.30;99.90;;;;;;4944202;29;20051;-71
2023/07/07 00:56:05;;;;;;;4.10;2.35;;;14.30;99.90;;;;;;4946152;28;20039;-71
2023/07/07 00:58:32;;;;;;;5.65;2.47;;;14.30;99.90;;;;;;4945699;28;20047;-71
2023/07/07 01:01:05;;;;;;;4.13;1.98;;;14.30;99.90;;;;;;4946953;28;20054;-71
2023/07/07 01:03:38;;;;;;;3.75;2.00;;;14.30;99.90;;;;;;4927497;29;20043;-71
2023/07/07 01:06:06;;;;;;;4.15;1.95;;;14.20;99.90;;;;;;5017439;23;20065;-71
2023/07/07 01:08:36;;;;;;;7.78;2.00;;;14.30;99.90;;;;;;4963728;28;20047;-71
2023/07/07 01:11:01;;;;;;;2.88;1.90;;;14.20;99.90;;;;;;4965401;28;20565;-71
2023/07/07 01:13:27;;;;;;;6.47;2.35;;;14.20;99.90;;;;;;4965358;28;20043;-71
2023/07/07 01:16:13;;;;;;;3.28;1.95;;;14.20;99.90;;;;;;4964198;28;20054;-70
2023/07/07 01:19:27;;;;;;;3.33;1.92;;;14.20;99.90;;;;;;4963301;28;20063;-71
2023/07/07 01:22:27;;;;;;;3.80;1.98;;;14.10;99.90;;;;;;4964226;28;20046;-70
2023/07/07 01:25:17;;;;;;;3.28;2.13;;;14.10;99.90;;;;;;4964186;28;20468;-71
2023/07/07 01:27:53;;;;;;;3.13;1.95;;;14.10;99.90;;;;;;4964260;28;20101;-70
2023/07/07 01:31:01;;;;;;;2.53;1.83;;;14.00;99.90;;;;;;4963553;28;20087;-71
2023/07/07 01:33:30;;;;;;;3.10;2.15;;;14.00;99.90;;;;;;4940432;28;20059;-71
2023/07/07 01:35:55;;;;;;;3.53;1.90;;;13.90;99.90;;;;;;4965915;28;20100;-71
2023/07/07 01:38:35;;;;;;;2.38;1.73;;;13.90;99.90;;;;;;4963784;28;20038;-71
2023/07/07 01:41:30;;;;;;;2.70;1.95;;;13.90;99.90;;;;;;4963953;28;20051;-71
2023/07/07 01:44:07;;;;;;;5.57;2.40;;;13.80;99.90;;;;;;4940446;28;20059;-71
2023/07/07 01:46:55;;;;;;;2.90;1.95;;;13.80;99.90;;;;;;4963300;28;20520;-72
2023/07/07 01:49:33;;;;;;;3.20;1.60;;;13.80;99.90;;;;;;4965150;28;20050;-73
2023/07/07 01:52:05;;;;;;;2.80;1.80;;;13.80;99.90;;;;;;4963723;28;20572;-72
2023/07/07 01:54:34;;;;;;;3.47;2.20;;;13.70;99.90;;;;;;4947320;28;20054;-73
2023/07/07 01:57:01;;;;;;;3.03;1.77;;;13.70;99.90;;;;;;4964082;28;20055;-75
2023/07/07 01:59:27;;;;;;;3.38;2.03;;;13.70;99.90;;;;;;4965319;28;20045;-74
2023/07/07 02:01:53;;;;;;;4.05;1.67;;;13.70;99.90;;;;;;4965183;28;20061;-72
2023/07/07 02:04:18;;;;;;;4.40;2.17;;;13.70;99.90;;;;;;4964883;28;20464;-72
2023/07/07 02:06:44;;;;;;;4.05;2.20;;;13.70;99.90;;;;;;4963948;28;20051;-72
2023/07/07 02:09:09;;;;;;;4.63;2.53;;;13.70;99.90;;;;;;4964407;28;20109;-72
2023/07/07 02:11:35;;;;;;;3.90;2.05;;;13.70;99.90;;;;;;4965198;28;20034;-72
2023/07/07 02:14:01;;;;;;;6.40;2.90;;;13.70;99.90;;;;;;4964642;28;20445;-72
2023/07/07 02:16:26;;;;;;;2.72;1.95;;;13.70;99.90;;;;;;4965293;28;20059;-72
2023/07/07 02:18:52;;;;;;;2.92;1.95;;;13.70;99.90;;;;;;4963894;28;20047;-72
2023/07/07 02:21:18;;;;;;;4.18;2.10;;;13.60;99.90;;;;;;4964591;28;20129;-73
2023/07/07 02:23:44;;;;;;;5.38;2.42;;;13.60;99.90;;;;;;4963703;28;20078;-72
2023/07/07 02:26:11;;;;;;;3.45;1.70;;;13.60;99.90;;;;;;4964761;28;20073;-72
2023/07/07 02:28:36;;;;;;;6.30;2.20;;;13.60;99.90;;;;;;4964965;28;20086;-73
2023/07/07 02:31:02;;;;;;;4.25;1.80;;;13.60;99.90;;;;;;4964842;28;20078;-73
2023/07/07 02:33:31;;;;;;;3.15;1.98;;;13.60;99.90;;;;;;4963922;28;20071;-73
2023/07/07 02:36:05;;;;;;;3.00;2.20;;;13.60;99.90;;;;;;4964116;28;20039;-73
2023/07/07 02:38:32;;;;;;;6.97;2.33;;;13.50;99.90;;;;;;4962957;28;20051;-73
2023/07/07 02:40:58;;;;;;;3.25;1.73;;;13.50;99.90;;;;;;4967797;28;20117;-73
2023/07/07 02:43:24;;;;;;;3.83;2.28;;;13.50;99.90;;;;;;4967024;28;20117;-73
2023/07/07 02:45:50;;;;;;;6.25;2.03;;;13.50;99.90;;;;;;4968030;28;20046;-73
2023/07/07 02:48:19;;;;;;;2.92;1.90;;;13.50;99.90;;;;;;4966628;28;20047;-73
2023/07/07 02:50:53;;;;;;;4.03;2.60;;;13.40;99.90;;;;;;4968235;28;20043;-73
2023/07/07 02:53:18;;;;;;;3.40;2.47;;;13.40;99.90;;;;;;4966882;28;20050;-71
2023/07/07 02:55:47;;;;;;;4.47;2.20;;;13.40;99.90;;;;;;4967010;28;20098;-72
2023/07/07 02:58:13;;;;;;;4.55;2.28;;;13.30;99.90;;;;;;4967941;28;20073;-73
2023/07/07 03:00:38;;;;;;;5.07;2.83;;;13.30;99.90;;;;;;4967432;28;20489;-73
2023/07/07 03:03:04;;;;;;;5.10;2.80;;;13.30;99.90;;;;;;4967713;28;20449;-73
2023/07/07 03:05:31;;;;;;;5.43;2.40;;;13.30;99.90;;;;;;4967868;28;20063;-75
2023/07/07 03:07:57;;;;;;;2.65;1.75;;;13.30;99.90;;;;;;4967319;28;20086;-73
2023/07/07 03:10:22;;;;;;;4.68;2.15;;;13.30;99.90;;;;;;4967495;28;20073;-73
2023/07/07 03:12:48;;;;;;;6.70;3.05;;;13.30;99.90;;;;;;4967923;28;20118;-73
2023/07/07 03:15:14;;;;;;;3.95;2.35;;;13.30;99.90;;;;;;4967489;28;20501;-73
2023/07/07 03:17:39;;;;;;;4.88;2.47;;;13.30;99.90;;;;;;4967531;28;20117;-73
2023/07/07 03:20:08;;;;;;;2.78;1.75;;;13.30;99.90;;;;;;4966109;28;20054;-73
2023/07/07 03:22:34;;;;;;;5.10;2.55;;;13.20;99.90;;;;;;4967126;28;20070;-73
2023/07/07 03:25:00;;;;;;;4.95;2.38;;;13.20;99.90;;;;;;4967300;28;20047;-74
2023/07/07 03:27:26;;;;;;;4.47;1.92;;;13.20;99.90;;;;;;4968067;28;20047;-72
2023/07/07 03:29:52;;;;;;;4.18;2.00;;;13.20;99.90;;;;;;4967639;28;20047;-73
2023/07/07 03:32:17;;;;;;;3.85;2.42;;;13.20;99.90;;;;;;4966710;28;20050;-72
2023/07/07 03:34:43;;;;;;;3.67;2.22;;;13.20;99.90;;;;;;4967693;28;20045;-72
2023/07/07 03:37:09;;;;;;;4.75;2.03;;;13.20;99.90;;;;;;4966386;28;20043;-72
2023/07/07 03:39:35;;;;;;;4.22;2.33;;;13.20;99.90;;;;;;4967080;28;20394;-72
2023/07/07 03:42:01;;;;;;;3.42;2.45;;;13.20;99.90;;;;;;4965864;28;20038;-73
2023/07/07 03:44:26;;;;;;;3.15;2.42;;;13.10;99.90;;;;;;4967328;28;20043;-73
2023/07/07 03:46:52;;;;;;;3.85;2.17;;;13.10;99.90;;;;;;4966825;28;20042;-72
2023/07/07 03:49:18;;;;;;;6.13;2.90;;;13.10;99.90;;;;;;4966899;28;20066;-73
2023/07/07 03:51:43;;;;;;;3.33;2.45;;;13.10;99.90;;;;;;4965021;28;20054;-73
2023/07/07 03:54:09;;;;;;;4.00;2.00;;;13.10;99.90;;;;;;4966825;28;20397;-72
2023/07/07 03:56:35;;;;;;;5.15;2.47;;;13.10;99.90;;;;;;4966893;28;20377;-73
2023/07/07 03:59:00;;;;;;;4.75;2.78;;;13.10;99.90;;;;;;4965313;28;20053;-73
2023/07/07 04:01:26;;;;;;;3.22;2.08;;;13.10;99.90;;;;;;4966841;28;20121;-73
2023/07/07 04:03:52;;;;;;;6.03;2.88;;;13.10;99.90;;;;;;4966711;28;20039;-73
2023/07/07 04:06:18;;;;;;;6.25;2.42;;;13.10;99.90;;;;;;4964105;28;20166;-73
2023/07/07 04:08:44;;;;;;;4.78;2.72;;;13.10;99.90;;;;;;4966591;28;20042;-73
2023/07/07 04:11:14;;;;;;;6.50;3.38;;;13.10;99.90;;;;;;4966106;28;20066;-73
2023/07/07 04:13:41;;;;;;;5.80;2.45;;;13.20;99.90;;;;;;4966443;28;20097;-73
2023/07/07 04:16:16;;;;;;;5.35;2.90;;;13.20;99.90;;;;;;4966204;28;20093;-73
2023/07/07 04:18:43;;;;;;;6.10;3.47;;;13.30;99.90;;;;;;4966577;28;20118;-72
2023/07/07 04:21:12;;;;;;;8.30;3.85;;;13.30;99.90;;;;;;4964863;28;20045;-73
2023/07/07 04:23:40;;;;;;;7.65;3.58;;;13.30;99.90;;;;;;4965456;28;20612;-73
2023/07/07 04:26:07;;;;;;;8.65;4.22;;;13.40;99.90;;;;;;4966048;28;20093;-72
2023/07/07 04:28:37;;;;;;;6.65;3.78;;;13.40;99.90;;;;;;4966361;28;20047;-72
2023/07/07 04:31:04;;;;;;;8.48;4.25;;;13.50;99.90;;;;;;4965634;28;20490;-73
2023/07/07 04:33:31;;;;;;;8.98;4.25;;;13.50;99.90;;;;;;4966340;28;20450;-74
2023/07/07 04:35:59;;;;;;;8.20;5.28;;;13.50;99.90;;;;;;4966418;28;20074;-73
2023/07/07 04:38:30;;;;;;;8.70;4.90;;;13.60;99.90;;;;;;4965139;28;20074;-73
2023/07/07 04:41:24;;;;;;;9.85;4.70;;;13.70;99.90;;;;;;4965427;28;20054;-72
2023/07/07 04:43:56;;;;;;;9.90;4.80;;;13.70;99.90;;;;;;4946395;28;20070;-73
2023/07/07 04:46:23;;;;;;;;;;;13.70;99.90;;;;;;4965999;28;20039;-73
2023/07/07 04:48:49;;;;;;;7.25;4.80;;;13.80;99.90;;;;;;4964806;28;20405;-73
2023/07/07 04:51:15;;;;;;;9.55;4.85;;;13.80;99.90;;;;;;4950127;28;20125;-76
2023/07/07 04:53:41;;;;;;;11.13;5.85;;;13.90;99.90;;;;;;4973421;28;20051;-73
2023/07/07 04:56:16;;;;;;;8.55;5.53;;;13.90;99.90;;;;;;4962324;28;20039;-73
2023/07/07 04:58:43;;;;;;;10.95;5.78;;;14.00;99.90;;;;;;4974044;28;20069;-74
2023/07/07 05:01:10;;;;;;;10.95;5.20;;;14.00;99.90;;;;;;4974008;28;20035;-72
2023/07/07 05:03:37;;;;;;;10.27;5.50;;;14.10;99.90;;;;;;4961460;28;20043;-74
2023/07/07 05:06:03;;;;;;;9.63;5.97;;;14.10;99.90;;;;;;4961659;28;20090;-73
2023/07/07 05:08:36;;;;;;;13.13;6.38;;;14.20;99.90;;;;;;4972647;28;20046;-73
2023/07/07 05:11:02;;;;;;;15.27;6.50;;;14.20;99.90;;;;;;4968075;28;20078;-72
2023/07/07 05:13:28;;;;;;;11.23;6.07;;;14.30;99.90;;;;;;4965952;28;20047;-72
2023/07/07 05:16:08;;;;;;;10.90;6.20;;;14.30;99.90;;;;;;4965860;28;20109;-72
2023/07/07 05:18:34;;;;;;;11.18;6.45;;;14.30;99.90;;;;;;4970185;28;20062;-73
2023/07/07 05:21:00;;;;;;;15.25;6.40;;;14.40;99.90;;;;;;4971016;28;20166;-74
2023/07/07 05:23:26;;;;;;;11.00;6.30;;;14.40;99.90;;;;;;4968791;28;20031;-73
2023/07/07 05:25:51;;;;;;;13.15;6.78;;;14.50;99.90;;;;;;4965423;28;20141;-74
2023/07/07 05:28:18;;;;;;;19.38;7.35;;;14.50;99.90;;;;;;4964916;28;20054;-72
2023/07/07 05:30:44;;;;;;;15.35;6.57;;;14.60;99.90;;;;;;4963871;28;20046;-72
2023/07/07 05:33:09;;;;;;;10.65;6.30;;;14.60;99.90;;;;;;4964722;28;20521;-74
2023/07/07 05:35:35;;;;;;;13.18;5.57;;;14.60;99.90;;;;;;4963413;28;20062;-72
2023/07/07 05:38:03;;;;;;;14.18;6.78;;;14.70;99.90;;;;;;4964432;28;20531;-74
2023/07/07 05:40:29;;;;;;;12.88;6.70;;;14.70;99.90;;;;;;4965636;28;20051;-74
2023/07/07 05:42:55;;;;;;;11.18;6.93;;;14.70;99.90;;;;;;4965493;28;20750;-73
2023/07/07 05:45:24;;;;;;;9.90;7.10;;;14.80;99.90;;;;;;4963847;28;20039;-72
2023/07/07 05:47:49;;;;;;;13.32;6.95;;;14.80;99.90;;;;;;4946880;28;20090;-73
2023/07/07 05:50:15;;;;;;;9.63;5.95;;;14.80;99.90;;;;;;4964857;28;20077;-72
2023/07/07 05:52:41;;;;;;;11.43;6.53;;;14.90;99.90;;;;;;4964033;28;20113;-74
2023/07/07 05:55:22;;;;;;;12.52;7.80;;;14.90;99.90;;;;;;4964875;28;20493;-73
2023/07/07 05:57:48;;;;;;;14.63;7.32;;;15.00;99.90;;;;;;4958903;28;20186;-73
2023/07/07 06:00:14;;;;;;;10.27;6.18;;;15.00;99.90;;;;;;4943577;29;20127;-72
2023/07/07 06:02:39;;;;;;;12.25;6.32;;;15.10;99.90;;;;;;4958166;28;20089;-73
2023/07/07 06:05:05;;;;;;;12.65;5.93;;;15.10;99.90;;;;;;4964537;28;20130;-73
2023/07/07 06:07:31;;;;;;;11.82;6.72;;;15.20;99.90;;;;;;4963652;28;20054;-73
2023/07/07 06:09:57;;;;;;;11.65;6.03;;;15.20;99.90;;;;;;4965555;28;20538;-73
2023/07/07 06:12:23;;;;;;;12.65;6.00;;;15.30;99.90;;;;;;4964889;28;20397;-73
2023/07/07 06:14:49;;;;;;;10.75;6.60;;;15.30;99.90;;;;;;4967224;28;20051;-72
2023/07/07 06:17:14;;;;;;;9.75;6.38;;;15.40;99.90;;;;;;4967872;28;20042;-74
2023/07/07 06:19:40;;;;;;;9.93;5.88;;;15.40;99.90;;;;;;4968768;28;20046;-73
2023/07/07 06:22:06;;;;;;;11.02;5.78;;;15.40;99.90;;;;;;4967372;28;20058;-73
2023/07/07 06:24:32;;;;;;;11.82;6.18;;;15.50;99.90;;;;;;4966525;28;20101;-72
2023/07/07 06:26:58;;;;;;;10.52;5.75;;;15.60;99.90;;;;;;4950917;28;20486;-73
2023/07/07 06:29:23;;;;;;;9.48;5.10;;;15.60;99.90;;;;;;4946042;28;20046;-77
2023/07/07 06:31:49;;;;;;;10.55;5.40;;;15.70;99.90;;;;;;4963487;28;20062;-75
2023/07/07 06:34:15;;;;;;;10.27;6.38;;;15.70;99.90;;;;;;4965923;28;20118;-76
2023/07/07 06:36:40;;;;;;;11.80;6.05;;;15.80;99.90;;;;;;4966166;28;20478;-75
2023/07/07 06:39:06;;;;;;;10.43;5.72;;;15.90;99.90;;;;;;4967480;28;20108;-74
2023/07/07 06:41:31;;;;;;;11.70;5.43;;;15.90;99.90;;;;;;4961016;28;20047;-75
2023/07/07 06:43:57;;;;;;;13.77;5.22;;;16.00;99.90;;;;;;4937513;28;20049;-74
2023/07/07 06:46:25;;;;;;;9.85;5.35;;;16.00;99.90;;;;;;4966762;28;20039;-74
2023/07/07 06:48:50;;;;;;;8.15;4.68;;;16.10;99.90;;;;;;4961683;28;20038;-74
2023/07/07 06:51:18;;;;;;;14.48;5.72;;;16.10;99.90;;;;;;4964681;28;20050;-74
2023/07/07 06:53:44;;;;;;;7.13;4.63;;;16.20;99.90;;;;;;4949780;28;20540;-76
2023/07/07 06:56:10;;;;;;;7.43;5.05;;;16.30;99.90;;;;;;4966124;28;20039;-73
2023/07/07 06:58:36;;;;;;;8.20;4.95;;;16.30;99.90;;;;;;4967525;28;20049;-75
2023/07/07 07:01:01;;;;;;;10.70;5.45;;;16.40;99.90;;;;;;4966812;28;20041;-73
2023/07/07 07:03:28;;;;;;;7.05;4.60;;;16.50;99.90;;;;;;4966615;28;20047;-75
2023/07/07 07:05:54;;;;;;;5.57;3.70;;;16.50;99.90;;;;;;4966530;28;20074;-76
2023/07/07 07:08:20;;;;;;;5.20;3.45;;;16.60;99.90;;;;;;4967355;28;20051;-74
2023/07/07 07:10:45;;;;;;;6.78;3.83;;;16.60;99.90;;;;;;4967401;28;20069;-75
2023/07/07 07:13:11;;;;;;;6.53;3.47;;;16.70;99.90;;;;;;4967039;28;20461;-75
2023/07/07 07:15:37;;;;;;;7.63;4.32;;;16.70;99.90;;;;;;4966187;28;20043;-76
2023/07/07 07:18:03;;;;;;;5.00;3.08;;;16.70;99.90;;;;;;4967326;28;20181;-76
2023/07/07 07:20:28;;;;;;;5.75;3.30;;;16.80;99.90;;;;;;4967215;28;20047;-76
2023/07/07 07:22:54;;;;;;;5.28;3.47;;;16.90;99.90;;;;;;4966015;28;20042;-82
2023/07/07 07:25:20;;;;;;;6.85;3.47;;;16.90;99.90;;;;;;4958240;28;20042;-72
2023/07/07 07:27:45;;;;;;;5.50;4.10;;;17.00;99.90;;;;;;4959519;28;20047;-74
2023/07/07 07:30:15;;;;;;;10.23;3.95;;;17.00;99.90;;;;;;4966398;28;20043;-72
2023/07/07 07:32:41;;;;;;;11.13;4.53;;;17.10;99.90;;;;;;4966198;28;20524;-73
2023/07/07 07:35:07;;;;;;;5.85;3.47;;;17.20;99.90;;;;;;4965356;28;20046;-73
2023/07/07 07:37:32;;;;;;;8.57;3.70;;;17.20;99.90;;;;;;4965329;28;20043;-74
2023/07/07 07:39:58;;;;;;;5.60;3.53;;;17.20;99.90;;;;;;4965378;28;20050;-74
2023/07/07 07:42:23;;;;;;;4.13;3.33;;;17.30;99.90;;;;;;4963713;28;20034;-74
2023/07/07 07:44:49;;;;;;;7.72;3.33;;;17.30;99.90;;;;;;4965444;28;20454;-73
2023/07/07 07:47:15;;;;;;;5.65;3.45;;;17.40;99.90;;;;;;4965595;28;20054;-74
2023/07/07 07:49:40;;;;;;;6.43;3.75;;;17.40;99.90;;;;;;4966376;28;20053;-73
2023/07/07 07:52:06;;;;;;;5.00;3.67;;;17.50;99.90;;;;;;4965327;28;20347;-73
2023/07/07 07:54:34;;;;;;;5.82;3.17;;;17.50;99.90;;;;;;4965383;28;20393;-74
2023/07/07 07:57:00;;;;;;;6.85;2.88;;;17.60;99.90;;;;;;4965017;28;20049;-75
2023/07/07 07:59:25;;;;;;;5.43;3.20;;;17.60;99.90;;;;;;4965720;28;20191;-73
2023/07/07 08:01:51;;;;;;;9.68;3.28;;;17.70;99.90;;;;;;4964721;28;20062;-73
2023/07/07 08:04:17;;;;;;;4.82;2.75;;;17.80;99.90;;;;;;4966548;28;20058;-74
2023/07/07 08:06:42;;;;;;;4.10;2.17;;;17.80;99.90;;;;;;4963436;28;20076;-74
2023/07/07 08:09:08;;;;;;;4.57;2.30;;;17.90;99.90;;;;;;4965554;28;20327;-73
2023/07/07 08:11:43;;;;;;;12.52;3.13;;;18.00;99.90;;;;;;4964481;28;20076;-74
2023/07/07 08:14:12;;;;;;;3.83;1.85;;;18.00;99.90;;;;;;4962675;28;20042;-74
2023/07/07 08:16:38;;;;;;;3.80;2.35;;;18.10;99.90;;;;;;4964888;28;20054;-74
2023/07/07 08:19:04;;;;;;;6.07;2.78;;;18.20;99.90;;;;;;4965116;28;20105;-74
2023/07/07 08:21:30;;;;;;;4.57;2.17;;;18.10;99.90;;;;;;4964512;28;20484;-75
2023/07/07 08:23:55;;;;;;;2.65;2.08;;;18.20;99.90;;;;;;4966101;28;20592;-74
2023/07/07 08:26:21;;;;;;;6.15;1.85;;;18.30;99.90;;;;;;4964655;28;20432;-74
2023/07/07 08:28:47;;;;;;;4.40;2.08;;;18.30;99.90;;;;;;4964974;28;20525;-74
2023/07/07 08:31:12;;;;;;;4.75;1.95;;;18.40;99.90;;;;;;4964310;28;20421;-74
2023/07/07 08:33:38;;;;;;;4.03;2.25;;;18.50;99.90;;;;;;4965230;28;20118;-73
2023/07/07 08:36:04;;;;;;;3.25;2.03;;;18.60;99.90;;;;;;4963358;28;20436;-77
2023/07/07 08:38:30;;;;;;;2.70;1.85;;;18.60;99.90;;;;;;4963567;28;20133;-76
2023/07/07 08:40:56;;;;;;;4.18;2.10;;;18.60;99.90;;;;;;4965943;28;20039;-72
2023/07/07 08:43:23;;;;;;;3.40;1.42;;;18.70;99.90;;;;;;4964828;28;20275;-74
2023/07/07 08:46:31;;;;;;;2.80;1.42;;;18.70;99.90;;;;;;4964798;28;20039;-74
2023/07/07 08:49:26;;;;;;;2.35;1.42;;;18.70;99.90;;;;;;4915350;28;20186;-75
2023/07/07 08:52:13;;;;;;;3.10;1.90;;;18.80;99.90;;;;;;4925367;29;20051;-76
2023/07/07 08:55:17;;;;;;;2.83;1.50;;;18.90;99.90;;;;;;4959290;28;20395;-76
2023/07/07 08:57:55;;;;;;;6.47;3.25;;;19.10;99.90;;;;;;4944361;28;20051;-76
2023/07/07 09:00:26;;;;;;;3.28;1.25;;;19.20;99.90;;;;;;4937829;28;20053;-76
2023/07/07 09:03:33;;;;;;;2.83;1.10;;;19.30;99.90;;;;;;4963584;28;20477;-76
2023/07/07 09:06:20;;;;;;;2.22;1.88;;;19.40;99.90;;;;;;4943402;29;20153;-76
2023/07/07 09:08:50;;;;;;;1.73;1.50;;;19.50;99.90;;;;;;4956117;28;20058;-75
2023/07/07 09:11:28;;;;;;;1.52;1.42;;;19.50;99.90;;;;;;4946952;28;20278;-76
2023/07/07 09:13:57;;;;;;;3.33;1.75;;;19.60;99.90;;;;;;4962832;28;20051;-75
2023/07/07 09:16:27;;;;;;;2.65;1.48;;;19.60;99.90;;;;;;4963106;28;20038;-76
2023/07/07 09:19:22;;;;;;;2.80;1.70;;;19.70;99.90;;;;;;4964548;28;20133;-75
2023/07/07 09:21:58;;;;;;;1.92;1.70;;;19.70;99.90;;;;;;4962991;28;20066;-76
2023/07/07 09:24:29;;;;;;;3.95;2.08;;;19.80;99.90;;;;;;4962548;28;20054;-76
2023/07/07 09:27:01;;;;;;;6.07;2.13;;;19.80;99.90;;;;;;4965009;28;20042;-76
2023/07/07 09:29:29;;;;;;;1.95;1.30;;;19.90;99.90;;;;;;4963240;28;20047;-76
2023/07/07 09:31:58;;;;;;;3.67;1.55;;;19.90;99.90;;;;;;4964643;28;20113;-76
2023/07/07 09:34:24;;;;;;;3.22;1.55;;;19.90;99.90;;;;;;4963578;28;20405;-76
2023/07/07 09:36:50;;;;;;;2.30;1.30;;;20.00;99.90;;;;;;4963070;28;20553;-76
2023/07/07 09:39:42;;;;;;;2.40;1.33;;;20.10;99.90;;;;;;4962520;28;20141;-76
2023/07/07 09:42:22;;;;;;;2.38;1.52;;;20.20;99.90;;;;;;4964345;28;20101;-76
2023/07/07 09:45:17;;;;;;;1.88;1.30;;;20.30;99.90;;;;;;4946782;28;20046;-76
2023/07/07 09:48:03;;;;;;;3.10;1.27;;;20.30;99.90;;;;;;4935607;29;20048;-76
2023/07/07 09:50:46;;;;;;;2.92;1.60;;;20.30;99.90;;;;;;4963493;28;20505;-76
2023/07/07 09:53:28;;;;;;;1.98;1.40;;;20.30;99.90;;;;;;4966300;28;20098;-76
2023/07/07 09:55:55;;;;;;;3.28;1.10;;;20.40;99.90;;;;;;4966645;28;20046;-76
2023/07/07 09:58:22;;;;;;;4.18;1.00;;;20.40;99.90;;;;;;4966140;28;20557;-76
2023/07/07 10:00:55;;;;;;;2.20;1.48;;;20.50;99.90;;;;;;4966703;28;20339;-76
2023/07/07 10:03:27;;;;;;;1.45;1.20;;;20.50;99.90;;;;;;4965598;28;20034;-76
2023/07/07 10:05:54;;;;;;;3.28;1.52;;;20.60;99.90;;;;;;4964873;28;20062;-76
2023/07/07 10:08:20;;;;;;;2.10;1.27;;;20.70;99.90;;;;;;4966236;28;20055;-76
2023/07/07 10:11:27;;;;;;;2.38;1.45;;;20.70;99.90;;;;;;4967513;28;20051;-75
2023/07/07 10:13:55;;;;;;;3.15;1.00;;;20.70;99.90;;;;;;4966423;28;20485;-74
2023/07/07 10:16:33;;;;;;;2.92;1.95;;;20.80;99.90;;;;;;4965465;28;20051;-75
2023/07/07 10:19:03;;;;;;;2.28;1.45;;;20.80;99.90;;;;;;4967440;28;20394;-75
2023/07/07 10:21:29;;;;;;;4.70;1.35;;;20.80;99.90;;;;;;4966925;28;20043;-75
2023/07/07 10:23:55;;;;;;;3.58;1.60;;;20.80;99.90;;;;;;4966585;28;20050;-76
2023/07/07 10:26:22;;;;;;;1.75;1.20;;;20.90;99.90;;;;;;4966201;28;20701;-75
2023/07/07 10:28:48;;;;;;;3.10;1.77;;;20.90;99.90;;;;;;4967792;28;20467;-75
2023/07/07 10:31:16;;;;;;;3.97;1.77;;;20.90;99.90;;;;;;4965714;28;20051;-75
2023/07/07 10:33:42;;;;;;;1.98;1.15;;;21.00;99.90;;;;;;4966862;28;20047;-75
2023/07/07 10:36:22;;;;;;;1.88;1.17;;;21.00;99.90;;;;;;4962295;28;20551;-75
2023/07/07 10:38:48;;;;;;;2.13;1.48;;;21.00;99.90;;;;;;4967223;28;20429;-76
2023/07/07 10:41:14;;;;;;;2.22;1.30;;;21.10;99.90;;;;;;4965183;28;20043;-75
2023/07/07 10:43:39;;;;;;;2.83;1.55;;;21.10;99.90;;;;;;4966292;28;20043;-75
2023/07/07 10:46:10;;;;;;;5.18;1.67;;;21.10;99.90;;;;;;4966492;28;20054;-75
2023/07/07 10:48:39;;;;;;;2.28;1.48;;;21.10;99.90;;;;;;4966432;28;20054;-75
2023/07/07 10:51:22;;;;;;;2.55;1.70;;;21.10;99.90;;;;;;4965884;28;20129;-75
2023/07/07 10:54:05;;;;;;;3.35;1.38;;;21.20;99.90;;;;;;4966582;28;20077;-75
2023/07/07 10:56:54;;;;;;;1.55;1.23;;;21.20;99.90;;;;;;4966084;28;20057;-76
2023/07/07 10:59:35;;;;;;;1.83;1.30;;;21.20;99.90;;;;;;4963879;28;20050;-75
2023/07/07 11:02:45;;;;;;;3.20;1.48;;;21.30;99.90;;;;;;4959659;28;20125;-76
2023/07/07 11:05:20;;;;;;;2.00;1.20;;;21.40;99.90;;;;;;4936838;28;20046;-75
2023/07/07 11:07:48;;;;;;;1.23;1.10;;;21.50;99.90;;;;;;4965239;28;20063;-76
2023/07/07 11:10:27;;;;;;;1.50;1.40;;;21.50;99.90;;;;;;4965016;28;20243;-75
2023/07/07 11:13:11;;;;;;;2.00;1.23;;;21.50;99.90;;;;;;4951705;28;20485;-75
2023/07/07 11:16:15;;;;;;;4.53;2.13;;;21.60;99.90;;;;;;4949210;28;20125;-75
2023/07/07 11:19:07;;;;;;;3.22;1.50;;;21.60;99.90;;;;;;4981703;28;20118;-75
2023/07/07 11:22:14;;;;;;;5.25;1.67;;;21.60;99.90;;;;;;4922286;28;20083;-75
2023/07/07 11:24:52;;;;;;;2.75;1.67;;;21.70;99.90;;;;;;4964766;28;20517;-75
2023/07/07 11:27:44;;;;;;;4.80;1.50;;;21.70;99.90;;;;;;4964645;28;20039;-76
2023/07/07 11:30:28;;;;;;;2.35;1.73;;;21.80;99.90;;;;;;4966158;28;20468;-75
2023/07/07 11:33:19;;;;;;;2.65;1.70;;;21.80;99.90;;;;;;4948802;28;20105;-75
2023/07/07 11:36:23;;;;;;;2.22;1.38;;;21.90;99.90;;;;;;4956037;28;20047;-75
2023/07/07 11:39:06;;;;;;;2.13;1.42;;;21.90;99.90;;;;;;4965243;28;20596;-75
2023/07/07 11:41:54;;;;;;;2.85;1.58;;;22.00;99.90;;;;;;4964171;28;20126;-76
2023/07/07 11:44:28;;;;;;;3.30;1.63;;;22.00;99.90;;;;;;4946685;29;20043;-76
2023/07/07 11:46:56;;;;;;;3.13;1.80;;;21.90;99.90;;;;;;4965390;28;20324;-75
2023/07/07 11:49:40;;;;;;;3.25;1.73;;;21.90;99.90;;;;;;4965728;28;20030;-75
2023/07/07 11:52:39;;;;;;;2.10;1.02;;;21.90;99.90;;;;;;4964577;28;20047;-75
2023/07/07 11:55:38;;;;;;;1.77;1.30;;;21.90;99.90;;;;;;4965961;28;20061;-75
2023/07/07 11:58:26;;;;;;;3.05;1.20;;;22.00;99.90;;;;;;4964398;28;20046;-75
2023/07/07 12:01:16;;;;;;;1.95;1.42;;;22.00;99.90;;;;;;4964425;28;20046;-75
2023/07/07 12:03:41;;;;;;;3.28;1.33;;;22.00;99.90;;;;;;4945776;28;20122;-75
2023/07/07 12:06:16;;;;;;;3.33;1.88;;;22.00;99.90;;;;;;4962582;28;20189;-73
2023/07/07 12:08:50;;;;;;;3.00;1.55;;;22.00;99.90;;;;;;4965734;28;20070;-75
2023/07/07 12:11:20;;;;;;;2.30;1.27;;;22.00;99.90;;;;;;4962668;28;20394;-75
2023/07/07 12:14:13;;;;;;;2.90;1.38;;;22.00;99.90;;;;;;4963857;28;20476;-75
2023/07/07 12:16:42;;;;;;;2.50;1.55;;;22.10;99.90;;;;;;4963740;28;20054;-74
2023/07/07 12:19:12;;;;;;;2.58;1.48;;;22.10;99.90;;;;;;4964827;28;20043;-75
2023/07/07 12:21:39;;;;;;;2.80;1.88;;;22.20;99.90;;;;;;4944345;28;20046;-75
2023/07/07 12:24:38;;;;;;;3.80;1.38;;;22.20;99.90;;;;;;4963502;28;20057;-76
2023/07/07 12:27:18;;;;;;;2.25;1.25;;;22.20;99.90;;;;;;4963793;28;20098;-74
2023/07/07 12:29:47;;;;;;;2.33;1.55;;;22.30;99.90;;;;;;4964809;28;20543;-74
2023/07/07 12:32:13;;;;;;;4.13;1.33;;;22.30;99.90;;;;;;4959272;28;20457;-73
2023/07/07 12:34:47;;;;;;;1.40;1.30;;;22.30;99.90;;;;;;4965009;28;20539;-73
2023/07/07 12:37:16;;;;;;;1.77;1.67;;;22.30;99.90;;;;;;4963874;28;20445;-73
2023/07/07 12:40:11;;;;;;;1.75;1.52;;;22.30;99.90;;;;;;4964794;28;20062;-76
2023/07/07 12:42:40;;;;;;;3.03;1.92;;;22.40;99.90;;;;;;4965249;28;20330;-76
2023/07/07 12:45:07;;;;;;;2.63;1.50;;;22.40;99.90;;;;;;4964655;28;20051;-76
2023/07/07 12:47:37;;;;;;;4.00;1.70;;;22.40;99.90;;;;;;4964314;28;20047;-75
2023/07/07 12:50:19;;;;;;;3.03;1.55;;;22.50;99.90;;;;;;4962584;28;20457;-76
2023/07/07 12:52:45;;;;;;;2.55;1.77;;;22.50;99.90;;;;;;4961684;28;20038;-76
2023/07/07 12:55:21;;;;;;;2.70;1.60;;;22.60;99.90;;;;;;4964704;28;20042;-78
2023/07/07 12:58:22;;;;;;;1.65;1.33;;;22.60;99.90;;;;;;4967794;28;20042;-75
2023/07/07 13:01:03;;;;;;;2.25;1.58;;;22.50;99.90;;;;;;4963277;28;20135;-76
2023/07/07 13:03:29;;;;;;;3.15;1.55;;;22.60;99.90;;;;;;4944160;29;20043;-76
2023/07/07 13:05:55;;;;;;;2.25;1.83;;;22.60;99.90;;;;;;4955570;28;20062;-75
2023/07/07 13:08:38;;;;;;;2.30;1.83;;;22.70;99.90;;;;;;4969242;28;20401;-77